createdAt,value
2023-04-14T00:00:06.433Z,99.90
2023-04-14T00:03:14.280Z,99.90
2023-04-14T00:06:16.286Z,99.90
2023-04-14T00:09:18.056Z,99.90
2023-04-14T00:12:19.749Z,99.90
2023-04-14T00:15:22.337Z,99.90
2023-04-14T00:18:24.142Z,99.90
2023-04-14T00:21:27.027Z,99.90
2023-04-14T00:24:28.779Z,99.90
2023-04-14T00:27:31.112Z,99.90
2023-04-14T00:30:32.882Z,99.90
2023-04-14T00:33:34.571Z,99.90
2023-04-14T00:36:36.954Z,99.90
2023-04-14T00:39:38.625Z,99.90
2023-04-14T00:42:47.786Z,99.90
2023-04-14T00:45:50.797Z,99.90
2023-04-14T00:48:52.527Z,99.90
2023-04-14T00:51:54.722Z,99.90
2023-04-14T00:54:56.681Z,99.90
2023-04-14T00:57:58.364Z,99.90
2023-04-14T01:01:00.187Z,99.90
2023-04-14T01:04:03.045Z,99.90
2023-04-14T01:07:04.814Z,99.90
2023-04-14T01:10:07.364Z,99.90
2023-04-14T01:13:24.092Z,99.90
2023-04-14T01:16:33.108Z,99.90
2023-04-14T01:19:41.632Z,99.90
2023-04-14T01:23:07.873Z,99.90
2023-04-14T01:26:29.363Z,99.90
2023-04-14T01:30:08.535Z,99.90
2023-04-14T01:33:15.541Z,99.90
2023-04-14T01:36:33.124Z,99.90
2023-04-14T01:39:47.067Z,99.90
2023-04-14T01:42:56.347Z,99.90
2023-04-14T01:46:03.749Z,99.90
2023-04-14T01:49:06.579Z,99.90
2023-04-14T01:52:11.181Z,99.90
2023-04-14T01:55:18.388Z,99.90
2023-04-14T01:58:21.840Z,99.90
2023-04-14T02:01:27.870Z,99.90
2023-04-14T02:04:39.004Z,99.90
2023-04-14T02:07:42.196Z,99.90
2023-04-14T02:10:48.903Z,99.90
2023-04-14T02:13:52.669Z,99.90
2023-04-14T02:16:57.228Z,99.90
2023-04-14T02:20:00.925Z,99.90
2023-04-14T02:23:02.706Z,99.90
2023-04-14T02:26:12.975Z,99.90
2023-04-14T02:29:20.713Z,99.90
2023-04-14T02:32:29.454Z,99.90
2023-04-14T02:35:39.817Z,99.90
2023-04-14T02:39:12.613Z,99.90
2023-04-14T02:42:21.468Z,99.90
2023-04-14T02:45:28.995Z,99.90
2023-04-14T02:48:38.572Z,99.90
2023-04-14T02:51:46.665Z,99.90
2023-04-14T02:54:58.414Z,99.90
2023-04-14T02:58:07.166Z,99.90
2023-04-14T03:01:28.056Z,99.90
2023-04-14T03:04:37.970Z,99.90
2023-04-14T03:08:01.664Z,99.90
2023-04-14T03:11:07.901Z,99.90
2023-04-14T03:14:11.388Z,99.90
2023-04-14T03:17:17.829Z,99.90
2023-04-14T03:20:23.725Z,99.90
2023-04-14T03:23:29.421Z,99.90
2023-04-14T03:26:45.056Z,99.90
2023-04-14T03:30:27.051Z,99.90
2023-04-14T03:33:50.583Z,99.90
2023-04-14T03:37:00.877Z,99.90
2023-04-14T03:40:16.154Z,99.90
2023-04-14T03:43:32.730Z,99.90
2023-04-14T03:46:44.455Z,99.90
2023-04-14T03:49:53.866Z,99.90
2023-04-14T03:53:03.194Z,99.90
2023-04-14T03:56:07.536Z,99.90
2023-04-14T03:59:16.996Z,99.90
2023-04-14T04:02:22.483Z,99.90
2023-04-14T04:05:25.152Z,99.90
2023-04-14T04:08:29.160Z,99.90
2023-04-14T04:11:34.208Z,99.90
2023-04-14T04:14:42.440Z,99.90
2023-04-14T04:17:51.461Z,99.90
2023-04-14T04:20:57.884Z,99.90
2023-04-14T04:24:03.724Z,99.90
2023-04-14T04:27:11.954Z,99.90
2023-04-14T04:30:25.269Z,99.90
2023-04-14T04:33:30.704Z,99.90
2023-04-14T04:36:44.173Z,99.90
2023-04-14T04:39:52.490Z,99.90
2023-04-14T04:42:56.406Z,99.90
2023-04-14T04:46:14.908Z,99.90
2023-04-14T04:49:24.596Z,99.90
2023-04-14T04:52:40.625Z,99.90
2023-04-14T04:55:46.012Z,99.90
2023-04-14T04:58:49.237Z,99.90
2023-04-14T05:01:51.629Z,99.90
2023-04-14T05:05:00.400Z,99.90
2023-04-14T05:08:15.386Z,99.90
2023-04-14T05:11:36.274Z,99.90
2023-04-14T05:14:38.878Z,99.90
2023-04-14T05:17:41.663Z,99.90
2023-04-14T05:20:43.885Z,99.90
2023-04-14T05:23:47.334Z,99.90
2023-04-14T05:27:12.510Z,99.90
2023-04-14T05:30:17.633Z,99.90
2023-04-14T05:33:22.900Z,99.90
2023-04-14T05:36:26.059Z,99.90
2023-04-14T05:39:29.600Z,99.90
2023-04-14T05:42:32.659Z,99.90
2023-04-14T05:45:35.828Z,99.90
2023-04-14T05:48:45.984Z,99.90
2023-04-14T05:52:24.153Z,99.90
2023-04-14T05:55:31.389Z,99.90
2023-04-14T05:58:40.314Z,99.90
2023-04-14T06:01:42.947Z,99.90
2023-04-14T06:04:45.428Z,99.90
2023-04-14T06:07:55.180Z,99.90
2023-04-14T06:10:57.722Z,99.90
2023-04-14T06:14:10.001Z,99.90
2023-04-14T06:17:14.712Z,99.90
2023-04-14T06:20:26.154Z,99.90
2023-04-14T06:23:28.794Z,99.90
2023-04-14T06:26:34.493Z,99.90
2023-04-14T06:29:37.256Z,99.90
2023-04-14T06:32:41.527Z,99.90
2023-04-14T06:35:44.132Z,99.90
2023-04-14T06:38:46.390Z,99.90
2023-04-14T06:41:50.509Z,99.90
2023-04-14T06:44:53.944Z,99.90
2023-04-14T06:47:56.364Z,99.90
2023-04-14T06:50:58.764Z,99.90
2023-04-14T06:54:01.792Z,99.90
2023-04-14T06:57:04.614Z,99.90
2023-04-14T07:00:07.677Z,99.90
2023-04-14T07:03:09.832Z,99.90
2023-04-14T07:06:17.706Z,99.90
2023-04-14T07:09:21.505Z,99.90
2023-04-14T07:12:23.576Z,99.90
2023-04-14T07:15:25.897Z,99.90
2023-04-14T07:18:28.503Z,99.90
2023-04-14T07:21:32.134Z,99.90
2023-04-14T07:24:36.346Z,99.90
2023-04-14T07:27:38.234Z,99.90
2023-04-14T07:30:40.091Z,99.90
2023-04-14T07:33:41.945Z,99.90
2023-04-14T07:36:43.926Z,99.90
2023-04-14T07:39:45.736Z,99.90
2023-04-14T07:42:47.913Z,99.90
2023-04-14T07:45:49.886Z,99.90
2023-04-14T07:48:54.963Z,99.90
2023-04-14T07:52:02.477Z,99.90
2023-04-14T07:55:05.267Z,99.90
2023-04-14T07:58:07.331Z,99.90
2023-04-14T08:01:09.360Z,99.90
2023-04-14T08:04:11.867Z,99.90
2023-04-14T08:07:13.806Z,99.90
2023-04-14T08:10:15.892Z,99.90
2023-04-14T08:13:17.876Z,99.90
2023-04-14T08:16:20.280Z,99.90
2023-04-14T08:19:22.566Z,99.90
2023-04-14T08:22:25.591Z,99.90
2023-04-14T08:25:27.810Z,99.90
2023-04-14T08:28:29.975Z,99.90
2023-04-14T08:31:33.390Z,99.90
2023-04-14T08:34:35.276Z,99.90
2023-04-14T08:37:37.088Z,99.90
2023-04-14T08:40:40.819Z,99.90
2023-04-14T08:43:43.001Z,99.90
2023-04-14T08:46:47.000Z,99.90
2023-04-14T08:50:21.746Z,99.90
2023-04-14T08:53:25.367Z,99.90
2023-04-14T08:56:36.136Z,99.90
2023-04-14T08:59:38.928Z,99.90
2023-04-14T09:02:41.672Z,99.90
2023-04-14T09:05:44.563Z,99.90
2023-04-14T09:08:46.614Z,99.90
2023-04-14T09:11:49.495Z,99.90
2023-04-14T09:14:53.353Z,99.90
2023-04-14T09:17:55.700Z,99.90
2023-04-14T09:21:30.427Z,99.90
2023-04-14T09:24:23.701Z,99.90
2023-04-14T09:27:26.813Z,99.90
2023-04-14T09:30:31.607Z,98.70
2023-04-14T09:33:38.164Z,97.00
2023-04-14T09:36:41.807Z,99.80
2023-04-14T09:39:51.838Z,82.50
2023-04-14T09:42:54.155Z,81.80
2023-04-14T09:45:57.324Z,98.00
2023-04-14T09:49:00.349Z,93.60
2023-04-14T09:52:09.419Z,93.80
2023-04-14T09:55:13.703Z,89.70
2023-04-14T09:58:23.050Z,82.20
2023-04-14T10:01:31.346Z,92.30
2023-04-14T10:04:33.738Z,88.30
2023-04-14T10:07:41.868Z,81.00
2023-04-14T10:10:45.469Z,79.20
2023-04-14T10:13:55.754Z,84.90
2023-04-14T10:16:57.491Z,80.30
2023-04-14T10:20:00.347Z,58.90
2023-04-14T10:23:06.132Z,81.50
2023-04-14T10:26:09.819Z,76.00
2023-04-14T10:29:12.402Z,76.30
2023-04-14T10:32:16.457Z,71.20
2023-04-14T10:35:20.676Z,68.90
2023-04-14T10:38:22.718Z,70.50
2023-04-14T10:41:25.011Z,66.00
2023-04-14T10:44:32.597Z,71.70
2023-04-14T10:47:39.751Z,73.40
2023-04-14T10:50:48.927Z,58.60
2023-04-14T10:53:54.394Z,72.30
2023-04-14T10:57:11.267Z,66.30
2023-04-14T11:00:23.654Z,65.60
2023-04-14T11:03:32.752Z,74.00
2023-04-14T11:06:47.216Z,66.50
2023-04-14T11:09:49.902Z,74.20
2023-04-14T11:13:06.982Z,76.90
2023-04-14T11:16:09.297Z,66.70
2023-04-14T11:19:15.425Z,74.30
2023-04-14T11:22:41.390Z,76.40
2023-04-14T11:25:43.851Z,70.50
2023-04-14T11:28:46.867Z,61.90
2023-04-14T11:32:05.338Z,60.90
2023-04-14T11:35:08.263Z,68.60
2023-04-14T11:38:11.350Z,70.60
2023-04-14T11:41:15.963Z,62.00
2023-04-14T11:44:19.420Z,60.00
2023-04-14T11:47:22.331Z,57.50
2023-04-14T11:50:24.578Z,59.10
2023-04-14T11:53:27.298Z,57.00
2023-04-14T11:56:31.804Z,61.80
2023-04-14T11:59:42.139Z,60.00
2023-04-14T12:02:45.518Z,58.10
2023-04-14T12:05:48.976Z,65.10
2023-04-14T12:08:57.053Z,68.80
2023-04-14T12:11:59.030Z,71.50
2023-04-14T12:15:02.810Z,65.60
2023-04-14T12:18:08.733Z,62.00
2023-04-14T12:21:12.030Z,57.40
2023-04-14T12:24:16.892Z,59.40
2023-04-14T12:27:25.733Z,58.90
2023-04-14T12:30:27.652Z,60.20
2023-04-14T12:33:31.017Z,52.90
2023-04-14T12:36:48.622Z,52.30
2023-04-14T12:40:00.916Z,55.90
2023-04-14T12:43:05.663Z,58.30
2023-04-14T12:46:07.980Z,60.50
2023-04-14T12:49:38.688Z,60.20
2023-04-14T12:52:40.970Z,60.40
2023-04-14T12:55:43.166Z,57.70
2023-04-14T12:58:48.892Z,52.60
2023-04-14T13:01:50.930Z,55.10
2023-04-14T13:04:52.755Z,54.60
2023-04-14T13:07:54.729Z,50.50
2023-04-14T13:10:56.711Z,50.70
2023-04-14T13:13:58.653Z,48.50
2023-04-14T13:17:00.551Z,45.10
2023-04-14T13:20:02.395Z,44.90
2023-04-14T13:23:04.373Z,50.50
2023-04-14T13:26:06.507Z,47.90
2023-04-14T13:29:08.442Z,45.00
2023-04-14T13:32:11.147Z,52.00
2023-04-14T13:35:13.610Z,47.70
2023-04-14T13:38:15.421Z,43.80
2023-04-14T13:41:19.530Z,45.30
2023-04-14T13:44:21.423Z,44.60
2023-04-14T13:47:25.570Z,48.40
2023-04-14T13:50:27.660Z,48.80
2023-04-14T13:53:29.484Z,48.20
2023-04-14T13:56:31.422Z,53.00
2023-04-14T13:59:34.083Z,50.70
2023-04-14T14:02:39.604Z,48.40
2023-04-14T14:05:41.477Z,43.20
2023-04-14T14:08:43.776Z,46.60
2023-04-14T14:11:46.932Z,46.20
2023-04-14T14:14:48.823Z,42.30
2023-04-14T14:17:53.182Z,47.10
2023-04-14T14:20:55.225Z,44.40
2023-04-14T14:23:57.597Z,46.20
2023-04-14T14:26:59.607Z,45.30
2023-04-14T14:30:01.562Z,55.10
2023-04-14T14:33:04.229Z,56.90
2023-04-14T14:36:06.782Z,57.10
2023-04-14T14:39:09.250Z,58.80
2023-04-14T14:42:11.722Z,59.20
2023-04-14T14:45:13.683Z,58.50
2023-04-14T14:48:16.534Z,57.90
2023-04-14T14:51:18.345Z,56.70
2023-04-14T14:54:20.244Z,59.60
2023-04-14T14:57:22.508Z,58.90
2023-04-14T15:00:24.279Z,52.10
2023-04-14T15:03:26.290Z,48.20
2023-04-14T15:06:28.564Z,45.70
2023-04-14T15:09:30.808Z,42.00
2023-04-14T15:12:32.697Z,45.50
2023-04-14T15:15:35.412Z,45.40
2023-04-14T15:18:37.412Z,45.10
2023-04-14T15:21:39.431Z,43.30
2023-04-14T15:24:41.749Z,43.40
2023-04-14T15:27:44.140Z,50.10
2023-04-14T15:30:46.087Z,47.70
2023-04-14T15:33:47.919Z,50.40
2023-04-14T15:36:49.719Z,51.70
2023-04-14T15:39:51.668Z,50.90
2023-04-14T15:42:53.391Z,50.10
2023-04-14T15:45:57.779Z,57.10
2023-04-14T15:48:59.532Z,54.50
2023-04-14T15:52:01.652Z,56.10
2023-04-14T15:55:03.966Z,57.90
2023-04-14T15:58:05.742Z,56.90
2023-04-14T16:01:08.056Z,57.50
2023-04-14T16:04:10.282Z,52.80
2023-04-14T16:07:12.247Z,50.30
2023-04-14T16:10:14.522Z,47.60
2023-04-14T16:13:16.905Z,45.00
2023-04-14T16:16:19.066Z,47.40
2023-04-14T16:19:21.712Z,47.70
2023-04-14T16:22:23.675Z,50.40
2023-04-14T16:25:28.772Z,47.30
2023-04-14T16:28:30.834Z,49.10
2023-04-14T16:31:32.847Z,51.20
2023-04-14T16:34:35.436Z,56.20
2023-04-14T16:37:40.033Z,57.80
2023-04-14T16:40:42.938Z,57.30
2023-04-14T16:43:44.876Z,57.50
2023-04-14T16:46:46.707Z,56.60
2023-04-14T16:49:51.843Z,55.40
2023-04-14T16:52:53.925Z,56.60
2023-04-14T16:56:03.662Z,57.00
2023-04-14T16:59:07.122Z,55.70
2023-04-14T17:02:09.234Z,58.60
2023-04-14T17:05:13.228Z,55.90
2023-04-14T17:08:15.473Z,56.50
2023-04-14T17:11:17.319Z,57.00
2023-04-14T17:14:19.578Z,64.60
2023-04-14T17:17:21.468Z,60.90
2023-04-14T17:20:23.304Z,57.70
2023-04-14T17:23:25.208Z,60.60
2023-04-14T17:26:27.130Z,58.50
2023-04-14T17:29:29.664Z,56.90
2023-04-14T17:32:32.420Z,59.40
2023-04-14T17:35:35.294Z,61.40
2023-04-14T17:38:38.726Z,62.00
2023-04-14T17:41:40.598Z,59.60
2023-04-14T17:44:42.812Z,58.20
2023-04-14T17:47:44.800Z,58.80
2023-04-14T17:50:47.046Z,60.00
2023-04-14T17:53:49.008Z,60.50
2023-04-14T17:56:51.025Z,60.70
2023-04-14T17:59:53.932Z,62.90
2023-04-14T18:02:55.872Z,63.90
2023-04-14T18:05:57.857Z,67.00
2023-04-14T18:08:59.774Z,71.40
2023-04-14T18:12:01.902Z,70.00
2023-04-14T18:15:05.394Z,74.10
2023-04-14T18:18:07.547Z,76.30
2023-04-14T18:21:10.315Z,83.00
2023-04-14T18:30:22.656Z,73.20
2023-04-14T18:33:28.162Z,76.90
2023-04-14T18:36:30.562Z,79.20
2023-04-14T18:39:36.634Z,81.80
2023-04-14T18:42:39.003Z,83.00
2023-04-14T18:45:47.928Z,79.60
2023-04-14T18:48:49.982Z,83.00
2023-04-14T18:51:53.642Z,84.90
2023-04-14T18:54:55.987Z,87.20
2023-04-14T18:57:59.112Z,90.50
2023-04-14T19:01:00.932Z,92.20
2023-04-14T19:04:03.081Z,91.20
2023-04-14T19:07:05.527Z,92.00
2023-04-14T19:10:08.005Z,93.10
2023-04-14T19:13:11.130Z,93.60
2023-04-14T19:16:16.427Z,95.40
2023-04-14T19:19:21.189Z,94.60
2023-04-14T19:22:23.132Z,95.30
2023-04-14T19:25:25.037Z,96.30
2023-04-14T19:28:28.031Z,96.80
2023-04-14T19:31:29.937Z,96.90
2023-04-14T19:34:32.062Z,97.50
2023-04-14T19:37:34.498Z,97.60
2023-04-14T19:40:37.025Z,99.90
2023-04-14T19:43:39.317Z,99.90
2023-04-14T19:46:42.264Z,99.90
2023-04-14T19:49:44.173Z,99.90
2023-04-14T19:52:48.546Z,99.90
2023-04-14T19:55:53.628Z,99.90
2023-04-14T19:58:55.472Z,99.90
2023-04-14T20:01:57.385Z,99.90
2023-04-14T20:05:01.343Z,99.90
2023-04-14T20:08:03.530Z,99.90
2023-04-14T20:11:05.380Z,99.90
2023-04-14T20:14:07.418Z,99.90
2023-04-14T20:17:09.276Z,99.90
2023-04-14T20:20:13.128Z,99.90
2023-04-14T20:23:15.565Z,99.90
2023-04-14T20:26:17.577Z,99.90
2023-04-14T20:29:19.606Z,99.90
2023-04-14T20:32:21.448Z,99.90
2023-04-14T20:35:23.376Z,99.90
2023-04-14T20:38:25.120Z,99.90
2023-04-14T20:41:27.219Z,99.90
2023-04-14T20:44:29.068Z,99.90
2023-04-14T20:47:31.127Z,99.90
2023-04-14T20:50:33.509Z,99.90
2023-04-14T20:53:35.918Z,99.90
2023-04-14T20:56:38.009Z,99.90
2023-04-14T20:59:40.122Z,99.90
2023-04-14T21:02:43.450Z,99.90
2023-04-14T21:05:46.362Z,99.90
2023-04-14T21:08:48.383Z,99.90
2023-04-14T21:12:15.411Z,99.90
2023-04-14T21:15:48.985Z,99.90
2023-04-14T21:18:37.755Z,99.90
2023-04-14T21:21:39.938Z,99.90
2023-04-14T21:24:46.620Z,99.90
2023-04-14T21:27:48.467Z,99.90
2023-04-14T21:30:50.460Z,99.90
2023-04-14T21:33:52.765Z,99.90
2023-04-14T21:36:54.814Z,99.90
2023-04-14T21:39:58.864Z,99.90
2023-04-14T21:43:03.905Z,99.90
2023-04-14T21:46:06.238Z,99.90
2023-04-14T21:49:08.269Z,99.90
2023-04-14T21:52:10.257Z,99.90
2023-04-14T21:55:12.340Z,99.90
2023-04-14T21:58:14.314Z,99.90
2023-04-14T22:01:16.274Z,99.90
2023-04-14T22:04:28.819Z,99.90
2023-04-14T22:07:37.640Z,99.90
2023-04-14T22:10:43.205Z,99.90
2023-04-14T22:13:45.354Z,99.90
2023-04-14T22:16:47.527Z,99.90
2023-04-14T22:19:49.516Z,99.90
2023-04-14T22:22:51.372Z,99.90
2023-04-14T22:25:53.247Z,99.90
2023-04-14T22:28:55.413Z,99.90
2023-04-14T22:31:57.352Z,99.90
2023-04-14T22:34:59.215Z,99.90
2023-04-14T22:38:01.504Z,99.90
2023-04-14T22:41:03.517Z,99.90
2023-04-14T22:44:06.628Z,99.90
2023-04-14T22:47:08.549Z,99.90
2023-04-14T22:50:10.693Z,99.90
2023-04-14T22:53:12.713Z,99.90
2023-04-14T22:56:14.857Z,99.90
2023-04-14T22:59:16.894Z,99.90
2023-04-14T23:02:18.939Z,99.90
2023-04-14T23:05:21.211Z,99.90
2023-04-14T23:08:25.288Z,99.90
2023-04-14T23:11:27.736Z,99.90
2023-04-14T23:14:29.727Z,99.90
2023-04-14T23:17:33.089Z,99.90
2023-04-14T23:20:35.375Z,99.90
2023-04-14T23:23:37.422Z,99.90
2023-04-14T23:26:39.519Z,99.90
2023-04-14T23:29:41.547Z,99.90
2023-04-14T23:32:44.838Z,99.90
2023-04-14T23:35:46.682Z,99.90
2023-04-14T23:38:49.048Z,99.90
2023-04-14T23:41:51.162Z,99.90
2023-04-14T23:44:53.036Z,99.90
2023-04-14T23:47:55.323Z,99.90
2023-04-14T23:50:59.618Z,99.90
2023-04-14T23:54:16.127Z,99.90
2023-04-14T23:57:18.221Z,99.90
